sensor_id;sensor_type;location;lat;lon;timestamp;temperature;humidity
24338;DHT22;12457;50.832;4.346;2023-02-28T00:01:12;1.60;99.90
24338;DHT22;12457;50.832;4.346;2023-02-28T00:03:38;1.60;99.90
24338;DHT22;12457;50.832;4.346;2023-02-28T00:06:05;1.50;99.90
24338;DHT22;12457;50.832;4.346;2023-02-28T00:08:31;1.50;99.90
24338;DHT22;12457;50.832;4.346;2023-02-28T00:11:00;1.50;99.90
24338;DHT22;12457;50.832;4.346;2023-02-28T00:13:25;1.50;99.90
24338;DHT22;12457;50.832;4.346;2023-02-28T00:16:04;1.50;99.90
24338;DHT22;12457;50.832;4.346;2023-02-28T00:18:30;1.50;99.90
24338;DHT22;12457;50.832;4.346;2023-02-28T00:20:56;1.50;99.90
24338;DHT22;12457;50.832;4.346;2023-02-28T00:23:21;1.50;99.90
24338;DHT22;12457;50.832;4.346;2023-02-28T00:25:47;1.50;99.90
24338;DHT22;12457;50.832;4.346;2023-02-28T00:28:12;1.50;99.90
24338;DHT22;12457;50.832;4.346;2023-02-28T00:30:38;1.60;99.90
24338;DHT22;12457;50.832;4.346;2023-02-28T00:33:03;1.50;99.90
24338;DHT22;12457;50.832;4.346;2023-02-28T00:35:29;1.50;99.90
24338;DHT22;12457;50.832;4.346;2023-02-28T00:37:55;1.50;99.90
24338;DHT22;12457;50.832;4.346;2023-02-28T00:40:20;1.50;99.90
24338;DHT22;12457;50.832;4.346;2023-02-28T00:42:46;1.40;99.90
24338;DHT22;12457;50.832;4.346;2023-02-28T00:45:12;1.40;99.90
24338;DHT22;12457;50.832;4.346;2023-02-28T00:47:37;1.40;99.90
24338;DHT22;12457;50.832;4.346;2023-02-28T00:50:03;1.50;99.90
24338;DHT22;12457;50.832;4.346;2023-02-28T00:52:29;1.40;99.90
24338;DHT22;12457;50.832;4.346;2023-02-28T00:54:56;1.40;99.90
24338;DHT22;12457;50.832;4.346;2023-02-28T00:57:22;1.30;99.90
24338;DHT22;12457;50.832;4.346;2023-02-28T00:59:48;1.20;99.90
24338;DHT22;12457;50.832;4.346;2023-02-28T01:02:13;1.20;99.90
24338;DHT22;12457;50.832;4.346;2023-02-28T01:04:39;1.10;99.90
24338;DHT22;12457;50.832;4.346;2023-02-28T01:07:05;1.10;99.90
24338;DHT22;12457;50.832;4.346;2023-02-28T01:09:30;1.10;99.90
24338;DHT22;12457;50.832;4.346;2023-02-28T01:11:56;1.10;99.90
24338;DHT22;12457;50.832;4.346;2023-02-28T01:14:21;1.20;99.90
24338;DHT22;12457;50.832;4.346;2023-02-28T01:16:47;1.20;99.90
24338;DHT22;12457;50.832;4.346;2023-02-28T01:19:13;1.20;99.90
24338;DHT22;12457;50.832;4.346;2023-02-28T01:21:38;1.20;99.90
24338;DHT22;12457;50.832;4.346;2023-02-28T01:24:04;1.20;99.90
24338;DHT22;12457;50.832;4.346;2023-02-28T01:26:30;1.20;99.90
24338;DHT22;12457;50.832;4.346;2023-02-28T01:28:56;1.10;99.90
24338;DHT22;12457;50.832;4.346;2023-02-28T01:31:22;1.10;99.90
24338;DHT22;12457;50.832;4.346;2023-02-28T01:33:47;1.20;99.90
24338;DHT22;12457;50.832;4.346;2023-02-28T01:36:14;1.20;99.90
24338;DHT22;12457;50.832;4.346;2023-02-28T01:38:40;1.20;99.90
24338;DHT22;12457;50.832;4.346;2023-02-28T01:41:06;1.20;99.90
24338;DHT22;12457;50.832;4.346;2023-02-28T01:43:52;1.20;99.90
24338;DHT22;12457;50.832;4.346;2023-02-28T01:46:17;1.10;99.90
24338;DHT22;12457;50.832;4.346;2023-02-28T01:51:35;1.10;99.90
24338;DHT22;12457;50.832;4.346;2023-02-28T01:54:03;1.10;99.90
24338;DHT22;12457;50.832;4.346;2023-02-28T01:56:32;1.10;99.90
24338;DHT22;12457;50.832;4.346;2023-02-28T01:58:58;1.00;99.90
24338;DHT22;12457;50.832;4.346;2023-02-28T02:01:25;0.90;99.90
24338;DHT22;12457;50.832;4.346;2023-02-28T02:03:51;0.80;99.90
24338;DHT22;12457;50.832;4.346;2023-02-28T02:06:30;0.80;99.90
24338;DHT22;12457;50.832;4.346;2023-02-28T02:08:58;0.80;99.90
24338;DHT22;12457;50.832;4.346;2023-02-28T02:11:24;0.80;99.90
24338;DHT22;12457;50.832;4.346;2023-02-28T02:21:45;0.70;99.90
24338;DHT22;12457;50.832;4.346;2023-02-28T02:34:26;0.60;99.90
24338;DHT22;12457;50.832;4.346;2023-02-28T02:36:57;0.50;99.90
24338;DHT22;12457;50.832;4.346;2023-02-28T02:39:30;0.60;99.90
24338;DHT22;12457;50.832;4.346;2023-02-28T02:41:58;0.60;99.90
24338;DHT22;12457;50.832;4.346;2023-02-28T02:47:02;0.60;99.90
24338;DHT22;12457;50.832;4.346;2023-02-28T02:49:30;0.50;99.90
24338;DHT22;12457;50.832;4.346;2023-02-28T02:51:57;0.50;99.90
24338;DHT22;12457;50.832;4.346;2023-02-28T02:54:25;0.50;99.90
24338;DHT22;12457;50.832;4.346;2023-02-28T02:56:53;0.50;99.90
24338;DHT22;12457;50.832;4.346;2023-02-28T02:59:21;0.50;99.90
24338;DHT22;12457;50.832;4.346;2023-02-28T03:01:50;0.50;99.90
24338;DHT22;12457;50.832;4.346;2023-02-28T03:04:18;0.50;99.90
24338;DHT22;12457;50.832;4.346;2023-02-28T03:06:44;0.50;99.90
24338;DHT22;12457;50.832;4.346;2023-02-28T03:09:09;0.50;99.90
24338;DHT22;12457;50.832;4.346;2023-02-28T03:11:35;0.50;99.90
24338;DHT22;12457;50.832;4.346;2023-02-28T03:27:29;0.60;99.90
24338;DHT22;12457;50.832;4.346;2023-02-28T03:30:05;0.50;99.90
24338;DHT22;12457;50.832;4.346;2023-02-28T03:32:39;0.50;99.90
24338;DHT22;12457;50.832;4.346;2023-02-28T03:35:12;0.50;99.90
24338;DHT22;12457;50.832;4.346;2023-02-28T03:37:40;0.50;99.90
24338;DHT22;12457;50.832;4.346;2023-02-28T03:40:07;0.50;99.90
24338;DHT22;12457;50.832;4.346;2023-02-28T03:42:35;0.40;99.90
24338;DHT22;12457;50.832;4.346;2023-02-28T03:45:05;0.40;99.90
24338;DHT22;12457;50.832;4.346;2023-02-28T03:48:07;0.50;99.90
24338;DHT22;12457;50.832;4.346;2023-02-28T03:50:27;0.50;99.90
24338;DHT22;12457;50.832;4.346;2023-02-28T03:52:55;0.50;99.90
24338;DHT22;12457;50.832;4.346;2023-02-28T03:55:28;0.40;99.90
24338;DHT22;12457;50.832;4.346;2023-02-28T04:00:40;0.40;99.90
24338;DHT22;12457;50.832;4.346;2023-02-28T04:03:08;0.30;99.90
24338;DHT22;12457;50.832;4.346;2023-02-28T04:05:39;0.30;99.90
24338;DHT22;12457;50.832;4.346;2023-02-28T04:11:01;0.30;99.90
24338;DHT22;12457;50.832;4.346;2023-02-28T04:13:29;0.30;99.90
24338;DHT22;12457;50.832;4.346;2023-02-28T04:15:55;0.20;99.90
24338;DHT22;12457;50.832;4.346;2023-02-28T04:18:20;0.20;99.90
24338;DHT22;12457;50.832;4.346;2023-02-28T04:20:46;0.20;99.90
24338;DHT22;12457;50.832;4.346;2023-02-28T04:23:11;0.20;99.90
24338;DHT22;12457;50.832;4.346;2023-02-28T04:25:37;0.10;99.90
24338;DHT22;12457;50.832;4.346;2023-02-28T04:28:02;0.10;99.90
24338;DHT22;12457;50.832;4.346;2023-02-28T04:30:28;0.00;99.90
24338;DHT22;12457;50.832;4.346;2023-02-28T04:32:54;0.00;99.90
24338;DHT22;12457;50.832;4.346;2023-02-28T04:35:20;0.00;99.90
24338;DHT22;12457;50.832;4.346;2023-02-28T04:37:45;0.10;99.90
24338;DHT22;12457;50.832;4.346;2023-02-28T04:40:11;0.10;99.90
24338;DHT22;12457;50.832;4.346;2023-02-28T04:42:37;0.10;99.90
24338;DHT22;12457;50.832;4.346;2023-02-28T04:45:02;0.00;99.90
24338;DHT22;12457;50.832;4.346;2023-02-28T04:47:28;-0.10;99.90
24338;DHT22;12457;50.832;4.346;2023-02-28T04:49:54;0.00;99.90
24338;DHT22;12457;50.832;4.346;2023-02-28T04:52:19;0.00;99.90
24338;DHT22;12457;50.832;4.346;2023-02-28T04:54:45;0.10;99.90
24338;DHT22;12457;50.832;4.346;2023-02-28T04:57:10;0.00;99.90
24338;DHT22;12457;50.832;4.346;2023-02-28T04:59:36;0.00;99.90
24338;DHT22;12457;50.832;4.346;2023-02-28T05:02:02;0.10;99.90
24338;DHT22;12457;50.832;4.346;2023-02-28T05:04:34;0.20;99.90
24338;DHT22;12457;50.832;4.346;2023-02-28T05:07:00;0.30;99.90
24338;DHT22;12457;50.832;4.346;2023-02-28T05:09:26;0.30;99.90
24338;DHT22;12457;50.832;4.346;2023-02-28T05:11:53;0.30;99.90
24338;DHT22;12457;50.832;4.346;2023-02-28T05:14:19;0.40;99.90
24338;DHT22;12457;50.832;4.346;2023-02-28T05:16:44;0.40;99.90
24338;DHT22;12457;50.832;4.346;2023-02-28T05:19:10;0.40;99.90
24338;DHT22;12457;50.832;4.346;2023-02-28T05:21:36;0.40;99.90
24338;DHT22;12457;50.832;4.346;2023-02-28T05:24:07;0.40;99.90
24338;DHT22;12457;50.832;4.346;2023-02-28T05:26:35;0.50;99.90
24338;DHT22;12457;50.832;4.346;2023-02-28T05:29:00;0.60;99.90
24338;DHT22;12457;50.832;4.346;2023-02-28T05:31:26;0.50;99.90
24338;DHT22;12457;50.832;4.346;2023-02-28T05:33:52;0.50;99.90
24338;DHT22;12457;50.832;4.346;2023-02-28T05:36:17;0.50;99.90
24338;DHT22;12457;50.832;4.346;2023-02-28T05:39:01;0.50;99.90
24338;DHT22;12457;50.832;4.346;2023-02-28T05:41:26;0.60;99.90
24338;DHT22;12457;50.832;4.346;2023-02-28T05:43:52;0.60;99.90
24338;DHT22;12457;50.832;4.346;2023-02-28T05:46:18;0.50;99.90
24338;DHT22;12457;50.832;4.346;2023-02-28T05:48:45;0.60;99.90
24338;DHT22;12457;50.832;4.346;2023-02-28T05:51:11;0.60;99.90
24338;DHT22;12457;50.832;4.346;2023-02-28T05:53:36;0.60;99.90
24338;DHT22;12457;50.832;4.346;2023-02-28T05:56:02;0.60;99.90
24338;DHT22;12457;50.832;4.346;2023-02-28T05:58:28;0.60;99.90
24338;DHT22;12457;50.832;4.346;2023-02-28T06:00:56;0.60;99.90
24338;DHT22;12457;50.832;4.346;2023-02-28T06:03:22;0.70;99.90
24338;DHT22;12457;50.832;4.346;2023-02-28T06:05:47;0.70;99.90
24338;DHT22;12457;50.832;4.346;2023-02-28T06:08:13;0.80;99.90
24338;DHT22;12457;50.832;4.346;2023-02-28T06:10:38;0.90;99.90
24338;DHT22;12457;50.832;4.346;2023-02-28T06:13:06;0.90;99.90
24338;DHT22;12457;50.832;4.346;2023-02-28T06:15:31;1.00;99.90
24338;DHT22;12457;50.832;4.346;2023-02-28T06:17:57;1.00;99.90
24338;DHT22;12457;50.832;4.346;2023-02-28T06:20:23;1.20;99.90
24338;DHT22;12457;50.832;4.346;2023-02-28T06:22:49;1.20;99.90
24338;DHT22;12457;50.832;4.346;2023-02-28T06:25:16;1.20;99.90
24338;DHT22;12457;50.832;4.346;2023-02-28T06:27:41;1.10;99.90
24338;DHT22;12457;50.832;4.346;2023-02-28T06:30:07;1.10;99.90
24338;DHT22;12457;50.832;4.346;2023-02-28T06:32:32;1.10;99.90
24338;DHT22;12457;50.832;4.346;2023-02-28T06:34:58;1.20;99.90
24338;DHT22;12457;50.832;4.346;2023-02-28T06:37:24;1.20;99.90
24338;DHT22;12457;50.832;4.346;2023-02-28T06:39:53;1.20;99.90
24338;DHT22;12457;50.832;4.346;2023-02-28T06:42:21;1.00;99.90
24338;DHT22;12457;50.832;4.346;2023-02-28T06:44:50;1.10;99.90
24338;DHT22;12457;50.832;4.346;2023-02-28T06:47:16;1.00;99.90
24338;DHT22;12457;50.832;4.346;2023-02-28T06:49:41;1.00;99.90
24338;DHT22;12457;50.832;4.346;2023-02-28T06:52:07;1.10;99.90
24338;DHT22;12457;50.832;4.346;2023-02-28T06:54:34;1.00;99.90
24338;DHT22;12457;50.832;4.346;2023-02-28T06:56:59;1.00;99.90
24338;DHT22;12457;50.832;4.346;2023-02-28T06:59:26;1.10;99.90
24338;DHT22;12457;50.832;4.346;2023-02-28T07:01:51;1.20;99.90
24338;DHT22;12457;50.832;4.346;2023-02-28T07:04:17;1.30;99.90
24338;DHT22;12457;50.832;4.346;2023-02-28T07:06:43;1.40;99.90
24338;DHT22;12457;50.832;4.346;2023-02-28T07:09:08;1.50;99.90
24338;DHT22;12457;50.832;4.346;2023-02-28T07:11:34;1.50;99.90
24338;DHT22;12457;50.832;4.346;2023-02-28T07:13:59;1.50;99.90
24338;DHT22;12457;50.832;4.346;2023-02-28T07:16:25;1.60;99.90
24338;DHT22;12457;50.832;4.346;2023-02-28T07:18:53;1.60;99.90
24338;DHT22;12457;50.832;4.346;2023-02-28T07:21:22;1.70;99.90
24338;DHT22;12457;50.832;4.346;2023-02-28T07:23:47;1.80;99.90
24338;DHT22;12457;50.832;4.346;2023-02-28T07:26:14;1.80;99.90
24338;DHT22;12457;50.832;4.346;2023-02-28T07:28:44;1.70;99.90
24338;DHT22;12457;50.832;4.346;2023-02-28T07:31:10;1.80;99.90
24338;DHT22;12457;50.832;4.346;2023-02-28T07:33:36;1.90;99.90
24338;DHT22;12457;50.832;4.346;2023-02-28T07:36:12;1.90;99.90
24338;DHT22;12457;50.832;4.346;2023-02-28T07:38:47;1.90;99.90
24338;DHT22;12457;50.832;4.346;2023-02-28T07:41:17;2.00;99.90
24338;DHT22;12457;50.832;4.346;2023-02-28T07:43:43;2.00;99.90
24338;DHT22;12457;50.832;4.346;2023-02-28T07:46:10;2.20;99.90
24338;DHT22;12457;50.832;4.346;2023-02-28T07:48:36;2.20;99.90
24338;DHT22;12457;50.832;4.346;2023-02-28T07:51:02;2.20;99.90
24338;DHT22;12457;50.832;4.346;2023-02-28T07:53:28;2.30;99.90
24338;DHT22;12457;50.832;4.346;2023-02-28T07:55:54;2.20;99.90
24338;DHT22;12457;50.832;4.346;2023-02-28T07:58:20;2.30;99.90
24338;DHT22;12457;50.832;4.346;2023-02-28T08:00:45;2.30;99.90
24338;DHT22;12457;50.832;4.346;2023-02-28T08:03:11;2.30;99.90
24338;DHT22;12457;50.832;4.346;2023-02-28T08:05:40;2.30;99.90
24338;DHT22;12457;50.832;4.346;2023-02-28T08:08:06;2.20;99.90
24338;DHT22;12457;50.832;4.346;2023-02-28T08:10:32;2.30;99.90
24338;DHT22;12457;50.832;4.346;2023-02-28T08:12:57;2.30;99.90
24338;DHT22;12457;50.832;4.346;2023-02-28T08:15:23;2.50;99.90
24338;DHT22;12457;50.832;4.346;2023-02-28T08:17:48;2.60;99.90
24338;DHT22;12457;50.832;4.346;2023-02-28T08:20:14;2.70;99.90
24338;DHT22;12457;50.832;4.346;2023-02-28T08:22:39;2.70;99.90
24338;DHT22;12457;50.832;4.346;2023-02-28T08:25:05;2.80;99.90
24338;DHT22;12457;50.832;4.346;2023-02-28T08:27:32;2.80;99.90
24338;DHT22;12457;50.832;4.346;2023-02-28T08:29:58;2.90;99.90
24338;DHT22;12457;50.832;4.346;2023-02-28T08:32:23;2.90;99.90
24338;DHT22;12457;50.832;4.346;2023-02-28T08:34:49;3.00;99.90
24338;DHT22;12457;50.832;4.346;2023-02-28T08:37:14;3.20;99.90
24338;DHT22;12457;50.832;4.346;2023-02-28T08:39:40;3.30;99.90
24338;DHT22;12457;50.832;4.346;2023-02-28T08:44:50;3.30;99.90
24338;DHT22;12457;50.832;4.346;2023-02-28T08:47:15;3.40;99.90
24338;DHT22;12457;50.832;4.346;2023-02-28T08:49:41;3.30;99.90
24338;DHT22;12457;50.832;4.346;2023-02-28T08:52:07;3.30;99.90
24338;DHT22;12457;50.832;4.346;2023-02-28T08:54:32;3.30;99.90
24338;DHT22;12457;50.832;4.346;2023-02-28T08:56:59;3.20;99.90
24338;DHT22;12457;50.832;4.346;2023-02-28T08:59:24;3.30;99.90
24338;DHT22;12457;50.832;4.346;2023-02-28T09:01:50;3.10;99.90
24338;DHT22;12457;50.832;4.346;2023-02-28T09:04:16;3.00;99.90
24338;DHT22;12457;50.832;4.346;2023-02-28T09:06:41;3.10;99.90
24338;DHT22;12457;50.832;4.346;2023-02-28T09:09:07;3.00;99.90
24338;DHT22;12457;50.832;4.346;2023-02-28T09:11:33;3.00;99.90
24338;DHT22;12457;50.832;4.346;2023-02-28T09:13:59;3.00;99.90
24338;DHT22;12457;50.832;4.346;2023-02-28T09:16:26;3.00;99.90
24338;DHT22;12457;50.832;4.346;2023-02-28T09:18:52;3.00;99.90
24338;DHT22;12457;50.832;4.346;2023-02-28T09:21:18;3.10;99.90
24338;DHT22;12457;50.832;4.346;2023-02-28T09:23:44;3.10;99.90
24338;DHT22;12457;50.832;4.346;2023-02-28T09:26:20;3.20;99.90
24338;DHT22;12457;50.832;4.346;2023-02-28T09:28:47;3.10;99.90
24338;DHT22;12457;50.832;4.346;2023-02-28T09:31:14;3.10;99.90
24338;DHT22;12457;50.832;4.346;2023-02-28T09:33:40;3.30;99.90
24338;DHT22;12457;50.832;4.346;2023-02-28T09:36:05;3.30;99.90
24338;DHT22;12457;50.832;4.346;2023-02-28T09:38:31;3.30;99.90
24338;DHT22;12457;50.832;4.346;2023-02-28T09:41:00;3.40;99.90
24338;DHT22;12457;50.832;4.346;2023-02-28T09:43:28;3.40;99.90
24338;DHT22;12457;50.832;4.346;2023-02-28T09:48:33;3.50;99.90
24338;DHT22;12457;50.832;4.346;2023-02-28T09:53:50;3.40;99.90
24338;DHT22;12457;50.832;4.346;2023-02-28T09:56:18;3.40;99.90
24338;DHT22;12457;50.832;4.346;2023-02-28T10:01:34;3.60;99.90
24338;DHT22;12457;50.832;4.346;2023-02-28T10:06:54;3.80;99.90
24338;DHT22;12457;50.832;4.346;2023-02-28T10:11:47;3.80;99.90
24338;DHT22;12457;50.832;4.346;2023-02-28T10:14:16;3.80;99.90
24338;DHT22;12457;50.832;4.346;2023-02-28T10:16:56;3.70;99.90
24338;DHT22;12457;50.832;4.346;2023-02-28T10:25:19;3.80;99.40
24338;DHT22;12457;50.832;4.346;2023-02-28T10:27:46;3.70;98.50
24338;DHT22;12457;50.832;4.346;2023-02-28T10:30:11;3.80;98.60
24338;DHT22;12457;50.832;4.346;2023-02-28T10:32:39;3.80;97.70
24338;DHT22;12457;50.832;4.346;2023-02-28T10:35:18;3.90;98.50
24338;DHT22;12457;50.832;4.346;2023-02-28T10:37:46;4.00;97.90
24338;DHT22;12457;50.832;4.346;2023-02-28T10:43:04;4.10;95.60
24338;DHT22;12457;50.832;4.346;2023-02-28T10:45:30;4.10;93.30
24338;DHT22;12457;50.832;4.346;2023-02-28T10:53:16;4.30;91.90
24338;DHT22;12457;50.832;4.346;2023-02-28T10:55:42;4.10;92.50
24338;DHT22;12457;50.832;4.346;2023-02-28T10:58:20;4.20;92.70
24338;DHT22;12457;50.832;4.346;2023-02-28T11:00:46;4.20;92.30
24338;DHT22;12457;50.832;4.346;2023-02-28T11:03:28;4.20;92.60
24338;DHT22;12457;50.832;4.346;2023-02-28T11:05:54;4.40;92.90
24338;DHT22;12457;50.832;4.346;2023-02-28T11:08:20;4.50;91.00
24338;DHT22;12457;50.832;4.346;2023-02-28T11:10:47;4.60;90.70
24338;DHT22;12457;50.832;4.346;2023-02-28T11:13:20;4.60;91.00
24338;DHT22;12457;50.832;4.346;2023-02-28T11:15:53;4.70;90.80
24338;DHT22;12457;50.832;4.346;2023-02-28T11:18:24;4.60;90.20
24338;DHT22;12457;50.832;4.346;2023-02-28T11:20:53;4.40;90.20
24338;DHT22;12457;50.832;4.346;2023-02-28T11:23:19;4.40;90.80
24338;DHT22;12457;50.832;4.346;2023-02-28T11:25:47;4.50;90.90
24338;DHT22;12457;50.832;4.346;2023-02-28T11:33:28;4.60;89.60
24338;DHT22;12457;50.832;4.346;2023-02-28T11:35:55;4.70;88.20
24338;DHT22;12457;50.832;4.346;2023-02-28T11:38:25;4.70;87.30
24338;DHT22;12457;50.832;4.346;2023-02-28T11:40:59;4.70;87.00
24338;DHT22;12457;50.832;4.346;2023-02-28T11:56:48;5.00;88.60
24338;DHT22;12457;50.832;4.346;2023-02-28T12:10:18;5.30;86.20
24338;DHT22;12457;50.832;4.346;2023-02-28T12:18:36;5.10;84.20
24338;DHT22;12457;50.832;4.346;2023-02-28T12:31:50;5.10;78.90
24338;DHT22;12457;50.832;4.346;2023-02-28T12:34:19;5.10;79.70
24338;DHT22;12457;50.832;4.346;2023-02-28T12:36:46;5.20;77.80
24338;DHT22;12457;50.832;4.346;2023-02-28T12:39:20;5.10;77.30
24338;DHT22;12457;50.832;4.346;2023-02-28T12:44:17;5.40;77.40
24338;DHT22;12457;50.832;4.346;2023-02-28T12:46:52;5.20;76.70
24338;DHT22;12457;50.832;4.346;2023-02-28T12:49:21;5.20;76.40
24338;DHT22;12457;50.832;4.346;2023-02-28T12:51:49;5.20;77.00
24338;DHT22;12457;50.832;4.346;2023-02-28T12:54:19;5.30;77.10
24338;DHT22;12457;50.832;4.346;2023-02-28T12:56:50;5.40;76.20
24338;DHT22;12457;50.832;4.346;2023-02-28T13:10:09;5.50;72.00
24338;DHT22;12457;50.832;4.346;2023-02-28T13:12:35;5.50;70.80
24338;DHT22;12457;50.832;4.346;2023-02-28T13:15:06;5.50;71.00
24338;DHT22;12457;50.832;4.346;2023-02-28T13:17:38;5.40;71.00
24338;DHT22;12457;50.832;4.346;2023-02-28T13:20:04;5.40;70.10
24338;DHT22;12457;50.832;4.346;2023-02-28T13:22:43;5.30;70.50
24338;DHT22;12457;50.832;4.346;2023-02-28T13:27:47;5.40;71.30
24338;DHT22;12457;50.832;4.346;2023-02-28T13:35:49;5.60;70.60
24338;DHT22;12457;50.832;4.346;2023-02-28T13:38:32;5.70;71.00
24338;DHT22;12457;50.832;4.346;2023-02-28T13:41:29;5.80;70.00
24338;DHT22;12457;50.832;4.346;2023-02-28T13:44:00;5.80;69.40
24338;DHT22;12457;50.832;4.346;2023-02-28T13:46:27;6.00;68.50
24338;DHT22;12457;50.832;4.346;2023-02-28T13:48:53;6.00;67.40
24338;DHT22;12457;50.832;4.346;2023-02-28T14:07:53;5.70;66.10
24338;DHT22;12457;50.832;4.346;2023-02-28T14:10:29;5.90;66.60
24338;DHT22;12457;50.832;4.346;2023-02-28T14:13:03;5.90;64.80
24338;DHT22;12457;50.832;4.346;2023-02-28T14:15:38;6.00;64.40
24338;DHT22;12457;50.832;4.346;2023-02-28T14:18:14;5.90;64.20
24338;DHT22;12457;50.832;4.346;2023-02-28T14:20:40;5.80;64.90
24338;DHT22;12457;50.832;4.346;2023-02-28T14:31:23;5.60;65.60
24338;DHT22;12457;50.832;4.346;2023-02-28T14:36:33;5.70;66.30
24338;DHT22;12457;50.832;4.346;2023-02-28T14:39:03;5.90;66.80
24338;DHT22;12457;50.832;4.346;2023-02-28T14:41:34;5.80;65.80
24338;DHT22;12457;50.832;4.346;2023-02-28T14:44:02;5.70;66.80
24338;DHT22;12457;50.832;4.346;2023-02-28T14:46:30;5.70;67.20
24338;DHT22;12457;50.832;4.346;2023-02-28T14:49:01;5.70;67.40
24338;DHT22;12457;50.832;4.346;2023-02-28T14:51:27;5.70;67.00
24338;DHT22;12457;50.832;4.346;2023-02-28T14:53:59;5.80;66.90
24338;DHT22;12457;50.832;4.346;2023-02-28T14:56:32;5.60;65.70
24338;DHT22;12457;50.832;4.346;2023-02-28T14:58:59;5.60;67.50
24338;DHT22;12457;50.832;4.346;2023-02-28T15:01:25;5.50;68.10
24338;DHT22;12457;50.832;4.346;2023-02-28T15:04:01;5.60;68.50
24338;DHT22;12457;50.832;4.346;2023-02-28T15:06:28;5.70;68.40
24338;DHT22;12457;50.832;4.346;2023-02-28T15:11:41;5.80;67.30
24338;DHT22;12457;50.832;4.346;2023-02-28T15:14:13;5.80;68.30
24338;DHT22;12457;50.832;4.346;2023-02-28T15:16:41;5.60;68.50
24338;DHT22;12457;50.832;4.346;2023-02-28T15:19:11;5.60;70.10
24338;DHT22;12457;50.832;4.346;2023-02-28T15:21:40;5.60;70.10
24338;DHT22;12457;50.832;4.346;2023-02-28T15:24:11;5.60;69.50
24338;DHT22;12457;50.832;4.346;2023-02-28T15:26:42;5.60;70.80
24338;DHT22;12457;50.832;4.346;2023-02-28T15:29:12;5.70;70.00
24338;DHT22;12457;50.832;4.346;2023-02-28T15:32:19;5.80;70.20
24338;DHT22;12457;50.832;4.346;2023-02-28T15:34:37;5.60;70.00
24338;DHT22;12457;50.832;4.346;2023-02-28T15:37:47;5.60;71.40
24338;DHT22;12457;50.832;4.346;2023-02-28T15:40:11;5.50;72.00
24338;DHT22;12457;50.832;4.346;2023-02-28T15:42:37;5.40;72.60
24338;DHT22;12457;50.832;4.346;2023-02-28T15:45:03;5.40;73.30
24338;DHT22;12457;50.832;4.346;2023-02-28T15:47:29;5.30;75.00
24338;DHT22;12457;50.832;4.346;2023-02-28T15:49:59;5.40;74.40
24338;DHT22;12457;50.832;4.346;2023-02-28T15:54:54;5.40;74.60
24338;DHT22;12457;50.832;4.346;2023-02-28T15:57:20;5.40;75.60
24338;DHT22;12457;50.832;4.346;2023-02-28T15:59:57;5.30;74.80
24338;DHT22;12457;50.832;4.346;2023-02-28T16:02:32;5.30;75.00
24338;DHT22;12457;50.832;4.346;2023-02-28T16:07:23;5.40;75.00
24338;DHT22;12457;50.832;4.346;2023-02-28T16:09:50;5.30;75.00
24338;DHT22;12457;50.832;4.346;2023-02-28T16:12:15;5.30;74.60
24338;DHT22;12457;50.832;4.346;2023-02-28T16:14:41;5.20;75.40
24338;DHT22;12457;50.832;4.346;2023-02-28T16:17:13;5.20;76.30
24338;DHT22;12457;50.832;4.346;2023-02-28T16:19:41;5.30;76.20
24338;DHT22;12457;50.832;4.346;2023-02-28T16:22:07;5.30;76.70
24338;DHT22;12457;50.832;4.346;2023-02-28T16:24:33;5.40;77.20
24338;DHT22;12457;50.832;4.346;2023-02-28T16:26:59;5.30;76.70
24338;DHT22;12457;50.832;4.346;2023-02-28T16:29:32;5.30;76.70
24338;DHT22;12457;50.832;4.346;2023-02-28T16:31:58;5.20;77.70
24338;DHT22;12457;50.832;4.346;2023-02-28T16:34:24;5.20;79.00
24338;DHT22;12457;50.832;4.346;2023-02-28T16:36:50;5.10;79.60
24338;DHT22;12457;50.832;4.346;2023-02-28T16:39:16;5.00;80.20
24338;DHT22;12457;50.832;4.346;2023-02-28T16:41:42;5.00;81.70
24338;DHT22;12457;50.832;4.346;2023-02-28T16:44:21;5.10;81.60
24338;DHT22;12457;50.832;4.346;2023-02-28T16:46:49;5.00;81.90
24338;DHT22;12457;50.832;4.346;2023-02-28T16:49:15;4.90;81.20
24338;DHT22;12457;50.832;4.346;2023-02-28T16:51:41;4.90;81.10
24338;DHT22;12457;50.832;4.346;2023-02-28T16:54:06;4.80;81.70
24338;DHT22;12457;50.832;4.346;2023-02-28T16:56:33;4.80;82.50
24338;DHT22;12457;50.832;4.346;2023-02-28T16:59:00;4.70;83.80
24338;DHT22;12457;50.832;4.346;2023-02-28T17:01:31;4.70;83.80
24338;DHT22;12457;50.832;4.346;2023-02-28T17:03:56;4.70;84.90
24338;DHT22;12457;50.832;4.346;2023-02-28T17:06:23;4.70;85.30
24338;DHT22;12457;50.832;4.346;2023-02-28T17:08:49;4.60;85.70
24338;DHT22;12457;50.832;4.346;2023-02-28T17:11:15;4.70;86.80
24338;DHT22;12457;50.832;4.346;2023-02-28T17:13:41;4.60;88.10
24338;DHT22;12457;50.832;4.346;2023-02-28T17:16:10;4.60;89.00
24338;DHT22;12457;50.832;4.346;2023-02-28T17:18:40;4.50;88.00
24338;DHT22;12457;50.832;4.346;2023-02-28T17:21:10;4.40;88.80
24338;DHT22;12457;50.832;4.346;2023-02-28T17:23:37;4.40;89.80
24338;DHT22;12457;50.832;4.346;2023-02-28T17:26:03;4.40;90.10
24338;DHT22;12457;50.832;4.346;2023-02-28T17:28:31;4.30;90.30
24338;DHT22;12457;50.832;4.346;2023-02-28T17:30:57;4.30;90.40
24338;DHT22;12457;50.832;4.346;2023-02-28T17:33:23;4.30;90.90
24338;DHT22;12457;50.832;4.346;2023-02-28T17:35:48;4.20;90.70
24338;DHT22;12457;50.832;4.346;2023-02-28T17:38:18;4.10;91.60
24338;DHT22;12457;50.832;4.346;2023-02-28T17:40:44;4.20;91.40
24338;DHT22;12457;50.832;4.346;2023-02-28T17:43:09;4.20;91.60
24338;DHT22;12457;50.832;4.346;2023-02-28T17:45:35;4.10;91.80
24338;DHT22;12457;50.832;4.346;2023-02-28T17:48:01;4.10;91.50
24338;DHT22;12457;50.832;4.346;2023-02-28T17:50:26;4.10;91.90
24338;DHT22;12457;50.832;4.346;2023-02-28T17:52:52;4.10;92.40
24338;DHT22;12457;50.832;4.346;2023-02-28T17:55:18;4.00;92.50
24338;DHT22;12457;50.832;4.346;2023-02-28T17:57:46;4.00;92.90
24338;DHT22;12457;50.832;4.346;2023-02-28T18:00:12;4.00;92.80
24338;DHT22;12457;50.832;4.346;2023-02-28T18:02:38;4.10;92.50
24338;DHT22;12457;50.832;4.346;2023-02-28T18:05:04;4.00;92.80
24338;DHT22;12457;50.832;4.346;2023-02-28T18:07:30;3.90;93.50
24338;DHT22;12457;50.832;4.346;2023-02-28T18:09:58;3.90;93.50
24338;DHT22;12457;50.832;4.346;2023-02-28T18:12:24;3.90;93.60
24338;DHT22;12457;50.832;4.346;2023-02-28T18:14:50;3.90;93.60
24338;DHT22;12457;50.832;4.346;2023-02-28T18:17:16;4.00;93.60
24338;DHT22;12457;50.832;4.346;2023-02-28T18:19:41;4.00;93.80
24338;DHT22;12457;50.832;4.346;2023-02-28T18:22:07;3.90;93.70
24338;DHT22;12457;50.832;4.346;2023-02-28T18:24:33;3.80;94.00
24338;DHT22;12457;50.832;4.346;2023-02-28T18:26:58;3.80;94.10
24338;DHT22;12457;50.832;4.346;2023-02-28T18:29:25;3.80;94.20
24338;DHT22;12457;50.832;4.346;2023-02-28T18:31:51;3.90;94.00
24338;DHT22;12457;50.832;4.346;2023-02-28T18:34:17;3.80;94.20
24338;DHT22;12457;50.832;4.346;2023-02-28T18:36:43;3.80;94.70
24338;DHT22;12457;50.832;4.346;2023-02-28T18:39:11;3.80;95.10
24338;DHT22;12457;50.832;4.346;2023-02-28T18:41:37;3.70;95.00
24338;DHT22;12457;50.832;4.346;2023-02-28T18:44:02;3.80;95.20